Time;durP1;ratioP1;P1;durP2;ratioP2;P2;SDS_P1;SDS_P2;PMS_P1;PMS_P2;Temp;Humidity;BMP_temperature;BMP_pressure;BME280_temperature;BME280_humidity;BME280_pressure;Samples;Min_cycle;Max_cycle;Signal;HPM_P1;HPM_P2
2021/08/16 00:01:26;;;;;;;14.27;12.23;;;17.20;99.90;;;;;;4845146;29;20229;-87
2021/08/16 00:03:57;;;;;;;15.43;11.87;;;17.20;99.90;;;;;;4830804;29;20217;-89
2021/08/16 00:06:26;;;;;;;14.13;12.63;;;17.10;99.90;;;;;;4851314;29;20277;-86
2021/08/16 00:08:57;;;;;;;14.53;12.50;;;17.10;99.90;;;;;;4851888;29;20212;-88
2021/08/16 00:11:26;;;;;;;14.60;13.10;;;17.10;99.90;;;;;;4847573;29;20643;-87
2021/08/16 00:13:56;;;;;;;13.63;12.17;;;17.10;99.90;;;;;;4831197;29;20282;-87
2021/08/16 00:16:25;;;;;;;14.03;12.60;;;17.10;99.90;;;;;;4832269;29;20213;-86
2021/08/16 00:18:59;;;;;;;16.80;12.73;;;17.10;99.90;;;;;;4843714;29;20217;-89
2021/08/16 00:21:29;;;;;;;15.17;12.70;;;17.10;99.90;;;;;;4855726;29;20197;-87
2021/08/16 00:23:59;;;;;;;14.83;11.93;;;17.10;99.90;;;;;;4855059;29;20441;-90
2021/08/16 00:26:31;;;;;;;17.13;12.90;;;17.00;99.90;;;;;;4858540;29;20237;-87
2021/08/16 00:29:01;;;;;;;13.97;12.50;;;17.00;99.90;;;;;;4851230;29;20546;-86
2021/08/16 00:31:31;;;;;;;15.50;13.30;;;16.90;99.90;;;;;;4839569;29;20209;-88
2021/08/16 00:34:02;;;;;;;16.00;13.10;;;16.90;99.90;;;;;;4850744;29;20418;-87
2021/08/16 00:36:31;;;;;;;15.07;13.43;;;16.80;99.90;;;;;;4851765;29;20214;-86
2021/08/16 00:39:01;;;;;;;16.23;13.63;;;16.70;99.90;;;;;;4842479;29;20205;-88
2021/08/16 00:41:31;;;;;;;16.97;13.73;;;16.70;99.90;;;;;;4839653;29;20243;-87
2021/08/16 00:44:01;;;;;;;16.40;13.97;;;16.70;99.90;;;;;;4829015;29;20309;-87
2021/08/16 00:46:33;;;;;;;15.77;13.60;;;16.70;99.90;;;;;;4844512;29;20627;-85
2021/08/16 00:49:05;;;;;;;16.67;14.07;;;16.70;99.90;;;;;;4844229;29;20210;-87
2021/08/16 00:51:36;;;;;;;16.03;14.40;;;16.60;99.90;;;;;;4838260;29;20767;-87
2021/08/16 00:54:07;;;;;;;18.33;14.43;;;16.70;99.90;;;;;;4841077;29;20206;-88
2021/08/16 00:56:39;;;;;;;20.13;16.07;;;16.70;99.90;;;;;;4835803;29;20215;-87
2021/08/16 00:59:11;;;;;;;16.90;15.03;;;16.80;99.90;;;;;;4846716;29;20194;-87
2021/08/16 01:01:40;;;;;;;20.10;17.10;;;16.80;99.90;;;;;;4855200;29;20228;-89
2021/08/16 01:04:11;;;;;;;19.23;17.20;;;16.70;99.90;;;;;;4855841;29;20219;-86
2021/08/16 01:06:41;;;;;;;18.37;16.23;;;16.70;99.90;;;;;;4853432;29;20214;-87
2021/08/16 01:09:11;;;;;;;17.77;15.87;;;16.80;99.90;;;;;;4827878;29;20305;-87
2021/08/16 01:11:41;;;;;;;18.23;14.53;;;16.80;99.90;;;;;;4835087;29;20214;-87
2021/08/16 01:14:11;;;;;;;18.90;15.63;;;16.80;99.90;;;;;;4842849;29;20209;-86
2021/08/16 01:16:42;;;;;;;20.17;15.07;;;16.70;99.90;;;;;;4838731;29;20214;-89
2021/08/16 01:19:13;;;;;;;18.27;15.27;;;16.70;99.90;;;;;;4849311;29;20265;-86
2021/08/16 01:21:45;;;;;;;17.90;16.03;;;16.60;99.90;;;;;;4837393;29;20681;-86
2021/08/16 01:24:15;;;;;;;17.37;15.57;;;16.60;99.90;;;;;;4832504;29;20285;-86
2021/08/16 01:26:47;;;;;;;17.97;16.10;;;16.60;99.90;;;;;;4854845;29;20209;-86
2021/08/16 01:29:18;;;;;;;17.90;15.73;;;16.60;99.90;;;;;;4856863;29;20213;-88
2021/08/16 01:31:59;;;;;;;16.47;14.80;;;16.60;99.90;;;;;;4959461;24;20259;-87
2021/08/16 01:34:30;;;;;;;19.10;14.77;;;16.50;99.90;;;;;;4871357;29;20212;-87
2021/08/16 01:37:02;;;;;;;19.20;14.53;;;16.50;99.90;;;;;;4869401;29;20220;-87
2021/08/16 01:39:32;;;;;;;16.23;14.53;;;16.50;99.90;;;;;;4868845;29;20213;-86
2021/08/16 01:42:06;;;;;;;18.47;16.43;;;16.40;99.90;;;;;;4869130;29;20216;-86
2021/08/16 01:44:40;;;;;;;20.80;18.73;;;16.40;99.90;;;;;;4882291;29;20746;-86
2021/08/16 01:47:11;;;;;;;19.37;17.33;;;16.40;99.90;;;;;;4881051;29;20216;-88
2021/08/16 01:49:40;;;;;;;20.13;17.93;;;16.30;99.90;;;;;;4887418;29;20227;-86
2021/08/16 01:52:10;;;;;;;19.10;16.67;;;16.30;99.90;;;;;;4873288;29;20228;-86
2021/08/16 01:54:41;;;;;;;18.60;16.60;;;16.30;99.90;;;;;;4875060;29;20476;-89
2021/08/16 01:57:13;;;;;;;22.00;17.30;;;16.40;99.90;;;;;;4876849;29;20204;-87
2021/08/16 01:59:43;;;;;;;21.50;16.67;;;16.30;99.90;;;;;;4881248;29;20223;-86
2021/08/16 02:02:15;;;;;;;18.90;16.87;;;16.30;99.90;;;;;;4881996;29;20197;-87
2021/08/16 02:04:47;;;;;;;18.53;16.40;;;16.30;99.90;;;;;;4866104;29;20248;-87
2021/08/16 02:07:17;;;;;;;20.03;16.90;;;16.20;99.90;;;;;;4893228;29;20204;-86
2021/08/16 02:09:47;;;;;;;20.00;17.57;;;16.20;99.90;;;;;;4895049;29;20189;-89
2021/08/16 02:12:18;;;;;;;18.70;16.80;;;16.30;99.90;;;;;;4881374;29;20774;-86
2021/08/16 02:14:49;;;;;;;22.70;17.93;;;16.30;99.90;;;;;;4866760;29;20209;-87
2021/08/16 02:17:18;;;;;;;19.13;17.23;;;16.30;99.90;;;;;;4879224;29;20200;-88
2021/08/16 02:19:47;;;;;;;19.10;17.30;;;16.30;99.90;;;;;;4880231;29;20204;-87
2021/08/16 02:22:18;;;;;;;22.07;18.13;;;16.30;99.90;;;;;;4872478;29;20212;-86
2021/08/16 02:24:49;;;;;;;21.43;18.23;;;16.30;99.90;;;;;;4874379;29;20630;-86
2021/08/16 02:27:33;;;;;;;22.13;17.80;;;16.30;99.90;;;;;;4872446;29;20209;-84
2021/08/16 02:30:37;;;;;;;18.63;16.63;;;16.30;99.90;;;;;;4871704;29;20256;-89
2021/08/16 02:33:43;;;;;;;20.30;16.93;;;16.30;99.90;;;;;;4891680;29;20199;-90
2021/08/16 02:36:48;;;;;;;19.47;16.27;;;16.30;99.90;;;;;;4884353;29;20565;-88
2021/08/16 02:39:21;;;;;;;18.73;16.73;;;16.40;99.90;;;;;;4882239;29;20213;-86
2021/08/16 02:41:50;;;;;;;18.40;16.43;;;16.30;99.90;;;;;;4889974;29;20208;-87
2021/08/16 02:44:21;;;;;;;18.60;16.57;;;16.30;99.90;;;;;;4881612;29;20257;-88
2021/08/16 02:46:52;;;;;;;18.50;16.47;;;16.30;99.90;;;;;;4867667;29;20201;-88
2021/08/16 02:49:22;;;;;;;19.80;17.57;;;16.30;99.90;;;;;;4875669;29;20268;-87
2021/08/16 02:52:06;;;;;;;20.83;16.53;;;16.30;99.90;;;;;;4872573;29;20297;-87
2021/08/16 02:54:37;;;;;;;19.00;16.13;;;16.40;99.90;;;;;;4877602;29;20238;-88
2021/08/16 02:57:06;;;;;;;20.63;16.37;;;16.40;99.90;;;;;;4874338;29;20193;-86
2021/08/16 02:59:46;;;;;;;18.73;16.83;;;16.40;99.90;;;;;;4879871;29;20228;-88
2021/08/16 03:02:18;;;;;;;19.40;16.27;;;16.40;99.90;;;;;;4871661;29;20213;-88
2021/08/16 03:04:49;;;;;;;17.83;15.80;;;16.50;99.90;;;;;;4874946;29;20781;-88
2021/08/16 03:07:18;;;;;;;20.73;15.63;;;16.50;99.90;;;;;;4870760;29;20669;-88
2021/08/16 03:09:50;;;;;;;16.33;14.50;;;16.60;99.90;;;;;;4870771;29;20209;-89
2021/08/16 03:12:19;;;;;;;17.37;15.30;;;16.60;99.90;;;;;;4860103;29;20712;-88
2021/08/16 03:14:51;;;;;;;16.20;14.50;;;16.60;99.90;;;;;;4862338;29;20606;-89
2021/08/16 03:17:30;;;;;;;16.87;14.83;;;16.60;99.90;;;;;;4872399;29;20216;-88
2021/08/16 03:20:00;;;;;;;15.37;13.87;;;16.60;99.90;;;;;;4871904;29;20203;-87
2021/08/16 03:22:29;;;;;;;17.63;15.20;;;16.60;99.90;;;;;;4878493;29;20204;-87
2021/08/16 03:24:59;;;;;;;17.80;15.00;;;16.60;99.90;;;;;;4868096;29;20327;-85
2021/08/16 03:27:29;;;;;;;17.57;15.77;;;16.60;99.90;;;;;;4877794;29;20556;-88
2021/08/16 03:30:07;;;;;;;17.63;14.50;;;16.60;99.90;;;;;;4885669;29;20236;-88
2021/08/16 03:32:37;;;;;;;15.83;14.30;;;16.60;99.90;;;;;;4886353;29;20204;-87
2021/08/16 03:35:07;;;;;;;16.90;14.73;;;16.70;99.90;;;;;;4892000;29;20200;-87
2021/08/16 03:37:36;;;;;;;17.07;15.17;;;16.70;99.90;;;;;;4900556;29;20207;-87
2021/08/16 03:40:07;;;;;;;18.53;14.90;;;16.70;99.90;;;;;;4895387;29;20211;-87
2021/08/16 03:42:37;;;;;;;24.90;19.37;;;16.70;99.90;;;;;;4892011;29;20290;-87
2021/08/16 03:45:15;;;;;;;21.57;18.40;;;16.70;99.90;;;;;;4890432;29;20288;-87
2021/08/16 03:47:47;;;;;;;20.33;16.10;;;16.60;99.90;;;;;;4870852;29;20777;-87
2021/08/16 03:50:17;;;;;;;17.20;15.43;;;16.70;99.90;;;;;;4892114;29;20246;-87
2021/08/16 03:52:49;;;;;;;20.23;16.30;;;16.70;99.90;;;;;;4888846;29;20212;-90
2021/08/16 03:55:18;;;;;;;18.43;16.37;;;16.80;99.90;;;;;;4882904;29;20280;-86
2021/08/16 03:57:47;;;;;;;18.47;16.63;;;16.80;99.90;;;;;;4889681;29;20220;-87
2021/08/16 04:00:20;;;;;;;18.33;15.03;;;16.80;99.90;;;;;;4881980;29;20248;-85
2021/08/16 04:02:50;;;;;;;18.37;14.90;;;16.80;99.90;;;;;;4890992;29;20194;-86
2021/08/16 04:05:20;;;;;;;18.97;14.53;;;16.80;99.90;;;;;;4886510;29;20239;-87
2021/08/16 04:07:50;;;;;;;18.10;15.17;;;16.80;99.90;;;;;;4876049;29;20396;-89
2021/08/16 04:10:20;;;;;;;18.87;15.47;;;16.80;99.90;;;;;;4873786;29;20240;-89
2021/08/16 04:12:50;;;;;;;17.73;15.33;;;16.90;99.90;;;;;;4860904;29;20209;-87
2021/08/16 04:15:23;;;;;;;17.70;15.37;;;16.90;99.90;;;;;;4875651;29;20208;-86
2021/08/16 04:17:53;;;;;;;17.77;15.10;;;17.00;99.90;;;;;;4882297;29;20285;-88
2021/08/16 04:20:25;;;;;;;16.90;15.10;;;16.90;99.90;;;;;;4874938;29;20216;-83
2021/08/16 04:23:15;;;;;;;17.10;14.57;;;17.00;99.90;;;;;;4881214;29;20220;-88
2021/08/16 04:25:45;;;;;;;16.20;14.53;;;17.00;99.90;;;;;;4887088;29;20243;-85
2021/08/16 04:28:17;;;;;;;15.70;14.10;;;17.00;99.90;;;;;;4867498;29;20220;-86
2021/08/16 04:30:55;;;;;;;16.67;14.07;;;17.10;99.90;;;;;;4887147;29;20228;-86
2021/08/16 04:33:34;;;;;;;19.63;14.17;;;17.10;99.90;;;;;;4885556;29;20220;-86
2021/08/16 04:36:04;;;;;;;16.93;13.77;;;17.20;99.90;;;;;;4915884;23;20248;-88
2021/08/16 04:38:39;;;;;;;15.00;13.37;;;17.20;99.90;;;;;;4882248;29;20215;-87
2021/08/16 04:41:09;;;;;;;15.57;13.13;;;17.30;99.90;;;;;;4880739;29;20268;-86
2021/08/16 04:43:41;;;;;;;14.73;13.23;;;17.30;99.90;;;;;;4885317;29;20216;-86
2021/08/16 04:46:13;;;;;;;15.93;13.50;;;17.40;99.90;;;;;;4864248;29;20264;-88
2021/08/16 04:48:46;;;;;;;16.10;13.30;;;17.50;99.90;;;;;;4887170;29;20192;-88
2021/08/16 04:51:18;;;;;;;15.23;13.60;;;17.60;99.90;;;;;;4874089;29;20200;-89
2021/08/16 04:53:54;;;;;;;16.10;13.47;;;17.70;99.90;;;;;;4866112;29;20216;-87
2021/08/16 04:56:24;;;;;;;15.53;12.77;;;17.80;99.90;;;;;;4876851;29;20216;-85
2021/08/16 04:58:57;;;;;;;15.40;12.00;;;17.90;99.90;;;;;;4885806;29;20204;-88
2021/08/16 05:01:30;;;;;;;15.27;13.20;;;18.00;99.90;;;;;;4917234;23;20248;-90
2021/08/16 05:04:00;;;;;;;15.10;12.20;;;18.10;99.90;;;;;;4873092;29;20224;-87
2021/08/16 05:06:32;;;;;;;14.90;11.80;;;18.20;99.90;;;;;;4856886;29;20206;-86
2021/08/16 05:09:07;;;;;;;15.80;12.00;;;18.30;99.90;;;;;;4832805;29;20450;-86
2021/08/16 05:11:37;;;;;;;15.83;11.70;;;18.50;99.90;;;;;;4859050;29;20234;-85
2021/08/16 05:14:06;;;;;;;15.93;11.90;;;18.60;99.90;;;;;;4855562;29;20295;-85
2021/08/16 05:16:42;;;;;;;18.50;11.30;;;18.70;99.60;;;;;;4863807;29;20218;-82
2021/08/16 05:19:15;;;;;;;13.67;11.37;;;18.70;99.60;;;;;;4864935;29;20216;-86
2021/08/16 05:21:45;;;;;;;14.07;12.60;;;18.70;99.90;;;;;;4858031;29;20300;-86
2021/08/16 05:24:14;;;;;;;13.67;12.13;;;18.80;99.90;;;;;;4850759;29;20209;-84
2021/08/16 05:26:43;;;;;;;14.07;12.67;;;18.80;99.90;;;;;;4854881;29;20217;-84
2021/08/16 05:29:13;;;;;;;13.37;12.03;;;18.90;99.90;;;;;;4859664;29;20268;-84
2021/08/16 05:31:44;;;;;;;15.90;13.33;;;18.90;99.90;;;;;;4859895;29;20309;-85
2021/08/16 05:34:13;;;;;;;14.43;12.90;;;18.90;99.90;;;;;;4855359;29;20216;-84
2021/08/16 05:36:42;;;;;;;14.60;13.10;;;18.90;99.90;;;;;;4865826;29;20224;-83
2021/08/16 05:39:12;;;;;;;14.50;13.00;;;18.90;99.90;;;;;;4853162;29;20209;-83
2021/08/16 05:41:40;;;;;;;18.10;13.63;;;18.90;99.90;;;;;;4857511;29;20319;-84
2021/08/16 05:44:14;;;;;;;14.60;13.10;;;18.90;99.90;;;;;;4854718;29;20220;-84
2021/08/16 05:46:44;;;;;;;14.67;12.67;;;18.90;99.90;;;;;;4848742;29;20682;-84
2021/08/16 05:49:17;;;;;;;16.30;13.47;;;19.00;99.90;;;;;;4849911;29;20216;-88
2021/08/16 05:51:47;;;;;;;15.47;13.47;;;19.00;99.90;;;;;;4868552;29;20241;-85
2021/08/16 05:54:16;;;;;;;14.97;13.23;;;19.10;99.90;;;;;;4862064;29;20233;-84
2021/08/16 05:56:46;;;;;;;16.57;13.53;;;19.10;99.90;;;;;;4860210;29;20419;-86
2021/08/16 05:59:17;;;;;;;15.87;13.67;;;19.10;99.90;;;;;;4846098;29;20713;-86
2021/08/16 06:01:47;;;;;;;15.43;12.73;;;19.20;99.90;;;;;;4844630;29;20213;-86
2021/08/16 06:04:18;;;;;;;15.33;13.17;;;19.20;99.90;;;;;;4846523;29;20209;-86
2021/08/16 06:06:47;;;;;;;15.70;13.50;;;19.30;99.90;;;;;;4847626;29;20256;-83
2021/08/16 06:09:16;;;;;;;14.87;13.27;;;19.40;99.90;;;;;;4849475;29;20218;-86
2021/08/16 06:11:45;;;;;;;16.20;13.20;;;19.50;99.90;;;;;;4833675;29;20213;-83
2021/08/16 06:14:15;;;;;;;14.57;13.03;;;19.60;99.90;;;;;;4840262;29;20210;-85
2021/08/16 06:16:44;;;;;;;15.40;13.80;;;19.70;99.90;;;;;;4835373;29;20217;-85
2021/08/16 06:19:15;;;;;;;15.10;13.50;;;19.80;99.90;;;;;;4841018;29;20220;-84
2021/08/16 06:21:43;;;;;;;15.63;13.87;;;20.00;99.90;;;;;;4832539;29;20214;-83
2021/08/16 06:24:13;;;;;;;15.87;12.77;;;20.10;99.90;;;;;;4838437;29;20220;-87
2021/08/16 06:26:42;;;;;;;14.73;13.33;;;20.10;99.90;;;;;;4836127;29;20558;-86
2021/08/16 06:29:12;;;;;;;16.73;14.40;;;20.10;99.90;;;;;;4832284;29;20218;-82
2021/08/16 06:31:40;;;;;;;17.07;14.40;;;20.10;99.90;;;;;;4837324;29;20649;-85
2021/08/16 06:34:12;;;;;;;16.03;14.13;;;20.20;99.90;;;;;;4826294;29;20208;-86
2021/08/16 06:36:50;;;;;;;16.30;14.60;;;20.30;99.90;;;;;;4836238;29;20217;-86
2021/08/16 06:39:21;;;;;;;16.30;14.70;;;20.40;99.90;;;;;;4831869;29;21366;-84
2021/08/16 06:41:52;;;;;;;15.73;14.03;;;20.50;99.90;;;;;;4833013;29;20382;-87
2021/08/16 06:44:26;;;;;;;16.10;14.47;;;20.60;99.90;;;;;;4836260;29;20214;-82
2021/08/16 06:46:56;;;;;;;16.90;14.67;;;20.80;99.90;;;;;;4844157;29;20229;-84
2021/08/16 06:49:26;;;;;;;16.63;15.02;;;20.80;99.90;;;;;;4840528;29;20209;-88
2021/08/16 06:51:56;;;;;;;16.27;14.67;;;20.90;99.00;;;;;;4824983;29;20300;-84
2021/08/16 06:54:25;;;;;;;17.65;15.70;;;20.90;99.60;;;;;;4832569;29;20214;-85
2021/08/16 06:56:59;;;;;;;17.27;14.87;;;21.00;99.80;;;;;;4833820;29;20405;-85
2021/08/16 06:59:33;;;;;;;16.43;14.73;;;21.00;99.90;;;;;;4847356;29;20189;-86
2021/08/16 07:02:02;;;;;;;17.57;15.73;;;21.10;99.10;;;;;;4831131;29;20224;-83
2021/08/16 07:04:32;;;;;;;17.30;14.93;;;21.10;99.40;;;;;;4832568;29;20205;-85
2021/08/16 07:07:04;;;;;;;17.53;14.47;;;21.20;99.90;;;;;;4843509;29;20237;-84
2021/08/16 07:09:33;;;;;;;16.73;14.67;;;21.40;99.60;;;;;;4832417;29;20238;-85
2021/08/16 07:12:02;;;;;;;16.60;14.85;;;21.80;98.50;;;;;;4833119;29;20236;-84
2021/08/16 07:14:31;;;;;;;18.02;13.70;;;22.10;97.60;;;;;;4824340;29;20224;-85
2021/08/16 07:17:01;;;;;;;15.10;13.60;;;22.50;96.30;;;;;;4826643;29;20276;-85
2021/08/16 07:19:30;;;;;;;15.30;13.70;;;22.70;95.00;;;;;;4823906;29;20259;-83
2021/08/16 07:22:10;;;;;;;14.75;13.18;;;23.00;93.70;;;;;;4828857;29;20285;-83
2021/08/16 07:24:39;;;;;;;13.10;11.55;;;23.20;93.00;;;;;;4836546;29;20216;-85
2021/08/16 07:27:09;;;;;;;13.68;12.27;;;23.40;92.20;;;;;;4834360;29;20313;-85
2021/08/16 07:29:38;;;;;;;12.68;11.40;;;23.70;92.20;;;;;;4828121;29;20818;-87
2021/08/16 07:32:07;;;;;;;13.20;11.60;;;23.80;91.80;;;;;;4829998;29;20210;-88
2021/08/16 07:34:37;;;;;;;11.60;10.40;;;24.10;91.20;;;;;;4840761;29;20209;-84
2021/08/16 07:37:12;;;;;;;11.63;10.15;;;24.30;90.60;;;;;;4848954;29;20988;-85
2021/08/16 07:39:41;;;;;;;12.43;10.02;;;24.40;90.20;;;;;;4834802;29;20548;-85
2021/08/16 07:42:10;;;;;;;11.73;10.02;;;24.50;88.40;;;;;;4842517;29;20225;-86
2021/08/16 07:44:39;;;;;;;10.52;9.45;;;24.70;88.30;;;;;;4839941;29;20480;-86
2021/08/16 07:47:09;;;;;;;10.05;9.15;;;24.90;87.20;;;;;;4851152;29;21241;-85
2021/08/16 07:49:38;;;;;;;9.23;8.43;;;25.00;87.00;;;;;;4841333;29;20240;-86
2021/08/16 07:52:09;;;;;;;10.98;9.88;;;25.20;86.80;;;;;;4847441;29;20224;-86
2021/08/16 07:54:39;;;;;;;10.05;9.00;;;25.30;87.10;;;;;;4842510;29;20571;-85
2021/08/16 07:57:08;;;;;;;9.65;8.70;;;25.40;87.20;;;;;;4831632;29;20347;-86
2021/08/16 07:59:38;;;;;;;10.13;9.10;;;25.50;86.60;;;;;;4826405;29;20408;-86
2021/08/16 08:02:07;;;;;;;9.40;8.50;;;25.60;86.80;;;;;;4822256;29;20213;-86
2021/08/16 08:04:37;;;;;;;9.20;8.32;;;25.60;86.70;;;;;;4840059;29;20194;-89
2021/08/16 08:07:05;;;;;;;9.48;8.50;;;25.80;86.20;;;;;;4841741;29;20238;-86
2021/08/16 08:09:36;;;;;;;9.48;8.60;;;25.90;86.60;;;;;;4834225;29;20197;-83
2021/08/16 08:12:05;;;;;;;9.15;7.43;;;26.10;86.60;;;;;;4830962;29;20566;-87
2021/08/16 08:14:36;;;;;;;8.38;7.47;;;26.20;85.90;;;;;;4837056;29;20197;-85
2021/08/16 08:17:05;;;;;;;8.50;7.72;;;26.30;85.60;;;;;;4840064;29;20205;-87
2021/08/16 08:19:35;;;;;;;9.20;7.47;;;26.40;85.40;;;;;;4834602;29;20227;-86
2021/08/16 08:22:12;;;;;;;8.60;7.53;;;26.50;85.00;;;;;;4833325;29;20233;-90
2021/08/16 08:24:46;;;;;;;7.35;6.75;;;26.60;84.80;;;;;;4847487;29;20216;-89
2021/08/16 08:27:18;;;;;;;8.15;7.45;;;26.70;84.60;;;;;;4876453;24;20247;-87
2021/08/16 08:29:47;;;;;;;7.38;6.68;;;27.00;85.20;;;;;;4872051;29;20597;-86
2021/08/16 08:32:17;;;;;;;11.60;6.43;;;27.20;84.10;;;;;;4858690;29;20204;-85
2021/08/16 08:34:46;;;;;;;7.03;5.97;;;27.50;83.50;;;;;;4866222;29;20212;-87
2021/08/16 08:37:17;;;;;;;5.85;5.35;;;27.70;82.20;;;;;;4867500;29;20212;-87
2021/08/16 08:39:48;;;;;;;6.32;5.82;;;27.90;81.50;;;;;;4874504;29;20350;-89
2021/08/16 08:42:18;;;;;;;6.65;5.68;;;28.00;81.20;;;;;;4865896;29;20200;-87
2021/08/16 08:44:48;;;;;;;8.43;5.78;;;28.00;80.70;;;;;;4856001;29;20236;-87
2021/08/16 08:47:25;;;;;;;6.65;6.10;;;28.10;80.90;;;;;;4837120;29;20248;-87
2021/08/16 08:49:55;;;;;;;6.63;5.82;;;28.30;80.40;;;;;;4827256;29;20237;-88
2021/08/16 08:52:28;;;;;;;7.40;5.80;;;28.30;80.20;;;;;;4827409;29;20212;-87
2021/08/16 08:55:31;;;;;;;6.43;5.82;;;28.40;80.50;;;;;;4812722;29;20212;-88
2021/08/16 08:58:19;;;;;;;6.20;5.63;;;28.10;79.90;;;;;;4838349;29;20210;-85
2021/08/16 09:00:50;;;;;;;7.22;5.93;;;27.70;80.60;;;;;;4829731;29;20213;-88
2021/08/16 09:03:19;;;;;;;6.03;5.43;;;27.50;80.40;;;;;;4848859;29;20288;-90
2021/08/16 09:05:54;;;;;;;6.47;5.88;;;27.40;80.90;;;;;;4833633;29;20214;-86
2021/08/16 09:08:37;;;;;;;7.32;5.78;;;27.20;81.10;;;;;;4841977;29;20245;-88
2021/08/16 09:11:33;;;;;;;6.53;5.80;;;27.20;81.40;;;;;;4845553;29;20205;-86
2021/08/16 09:14:19;;;;;;;6.22;5.63;;;27.20;81.10;;;;;;4831815;29;20332;-90
2021/08/16 09:16:58;;;;;;;6.00;5.50;;;27.20;81.70;;;;;;4843219;29;20205;-87
2021/08/16 09:19:32;;;;;;;6.00;5.38;;;27.20;81.10;;;;;;4834747;29;20909;-88
2021/08/16 09:22:06;;;;;;;5.85;5.25;;;27.30;80.90;;;;;;4834056;29;20213;-87
2021/08/16 09:24:36;;;;;;;6.95;5.50;;;27.20;80.90;;;;;;4839578;29;20228;-87
2021/08/16 09:27:10;;;;;;;5.80;5.30;;;27.10;80.90;;;;;;4836748;29;20702;-84
2021/08/16 09:29:50;;;;;;;6.38;4.72;;;27.10;80.60;;;;;;4827562;29;20224;-88
2021/08/16 09:32:32;;;;;;;5.82;5.22;;;27.20;80.90;;;;;;4831536;29;20256;-90
2021/08/16 09:35:10;;;;;;;6.13;5.00;;;27.40;80.60;;;;;;4824979;29;20402;-89
2021/08/16 09:37:43;;;;;;;5.13;4.68;;;27.50;80.40;;;;;;4829217;29;20221;-89
2021/08/16 09:40:17;;;;;;;5.32;4.82;;;27.60;80.20;;;;;;4830305;29;20891;-87
2021/08/16 09:42:49;;;;;;;4.95;4.38;;;27.70;80.20;;;;;;4841816;29;20210;-87
2021/08/16 09:45:29;;;;;;;5.15;4.65;;;27.90;80.40;;;;;;4838690;29;20651;-89
2021/08/16 09:48:03;;;;;;;7.75;4.90;;;28.20;80.70;;;;;;4838246;29;20273;-89
2021/08/16 09:50:44;;;;;;;6.88;4.93;;;28.40;79.80;;;;;;4834050;29;20666;-88
2021/08/16 09:53:20;;;;;;;5.72;4.38;;;28.40;78.90;;;;;;4844550;29;20585;-85
2021/08/16 09:55:57;;;;;;;6.00;4.82;;;28.30;79.10;;;;;;4852323;29;20297;-87
2021/08/16 09:58:31;;;;;;;5.57;4.80;;;28.30;79.20;;;;;;4845407;29;20223;-89
2021/08/16 10:01:02;;;;;;;5.10;4.63;;;28.40;79.80;;;;;;4844384;29;20615;-89
2021/08/16 10:03:33;;;;;;;5.68;4.93;;;28.50;79.60;;;;;;4839712;29;20186;-89
2021/08/16 10:06:05;;;;;;;5.95;4.72;;;28.60;79.60;;;;;;4853904;29;20207;-86
2021/08/16 10:08:39;;;;;;;5.85;4.97;;;28.60;79.60;;;;;;4854497;29;20224;-87
2021/08/16 10:11:09;;;;;;;5.55;4.78;;;28.60;78.80;;;;;;4845704;29;20272;-87
2021/08/16 10:13:42;;;;;;;5.22;4.82;;;28.50;79.00;;;;;;4848130;29;20185;-87
2021/08/16 10:16:18;;;;;;;5.57;4.85;;;28.40;79.60;;;;;;4853283;29;20423;-88
2021/08/16 10:18:56;;;;;;;5.55;4.75;;;28.30;79.50;;;;;;4855719;29;20284;-88
2021/08/16 10:21:27;;;;;;;5.28;4.78;;;28.20;79.80;;;;;;4846048;29;20209;-85
2021/08/16 10:23:57;;;;;;;6.90;4.80;;;28.20;79.50;;;;;;4844579;29;20241;-85
2021/08/16 10:26:32;;;;;;;5.93;5.00;;;28.20;79.30;;;;;;4842101;29;20238;-87
2021/08/16 10:29:05;;;;;;;5.28;4.78;;;28.20;78.80;;;;;;4846442;29;20233;-87
2021/08/16 10:31:37;;;;;;;6.10;5.05;;;28.30;78.60;;;;;;4844204;29;20293;-88
2021/08/16 10:34:07;;;;;;;5.13;4.63;;;28.50;79.00;;;;;;4845972;29;20237;-84
2021/08/16 10:36:37;;;;;;;5.65;4.63;;;28.60;78.40;;;;;;4844872;29;20214;-85
2021/08/16 10:39:06;;;;;;;6.22;4.65;;;28.90;78.30;;;;;;4845213;29;20575;-88
2021/08/16 10:41:42;;;;;;;5.28;4.78;;;29.10;78.10;;;;;;4850729;29;20231;-90
2021/08/16 10:44:16;;;;;;;5.70;4.50;;;29.20;77.30;;;;;;4839678;29;20313;-88
2021/08/16 10:46:58;;;;;;;4.97;4.43;;;29.20;76.50;;;;;;4830980;29;20297;-88
2021/08/16 10:49:32;;;;;;;5.03;4.53;;;29.10;76.60;;;;;;4828785;29;20214;-87
2021/08/16 10:52:01;;;;;;;5.15;4.50;;;29.10;77.10;;;;;;4834106;29;20205;-87
2021/08/16 10:54:31;;;;;;;4.75;4.35;;;29.10;76.30;;;;;;4828587;29;20234;-85
2021/08/16 10:57:02;;;;;;;6.68;4.70;;;28.90;76.30;;;;;;4834877;29;20209;-84
2021/08/16 10:59:50;;;;;;;6.60;4.90;;;28.70;77.20;;;;;;4836941;29;20626;-87
2021/08/16 11:02:29;;;;;;;6.93;4.70;;;28.50;77.10;;;;;;4829767;29;20870;-87
2021/08/16 11:04:59;;;;;;;7.53;4.57;;;28.50;76.90;;;;;;4828094;29;20520;-88
2021/08/16 11:07:29;;;;;;;6.03;4.53;;;28.40;77.10;;;;;;4836167;29;20794;-89
2021/08/16 11:10:02;;;;;;;5.50;4.93;;;28.30;77.00;;;;;;4828611;29;20487;-90
2021/08/16 11:12:33;;;;;;;6.57;5.20;;;28.30;77.20;;;;;;4830448;29;20901;-85
2021/08/16 11:15:08;;;;;;;6.45;4.93;;;28.40;77.40;;;;;;4831302;29;20212;-87
2021/08/16 11:17:39;;;;;;;5.18;4.68;;;28.60;77.20;;;;;;4828637;29;20308;-88
2021/08/16 11:20:15;;;;;;;6.28;5.05;;;28.60;76.90;;;;;;4823656;29;21090;-89
2021/08/16 11:23:02;;;;;;;5.45;4.93;;;28.70;77.40;;;;;;4830250;29;20209;-87
2021/08/16 11:25:33;;;;;;;5.13;4.63;;;29.10;77.40;;;;;;4841650;29;20497;-88
2021/08/16 11:28:04;;;;;;;5.28;4.53;;;29.30;77.60;;;;;;4838545;29;20553;-88
2021/08/16 11:30:35;;;;;;;4.72;4.32;;;29.60;77.10;;;;;;4827077;29;20220;-87
2021/08/16 11:33:04;;;;;;;6.07;5.18;;;29.80;77.00;;;;;;4827928;29;20219;-85
2021/08/16 11:35:33;;;;;;;4.82;4.32;;;30.00;76.80;;;;;;4832318;29;20215;-89
2021/08/16 11:38:14;;;;;;;5.22;4.47;;;30.10;76.40;;;;;;4831375;29;20409;-85
2021/08/16 11:40:47;;;;;;;5.15;4.72;;;30.20;75.70;;;;;;4831540;29;20212;-87
2021/08/16 11:43:27;;;;;;;5.35;4.35;;;29.80;75.80;;;;;;4834472;29;20455;-87
2021/08/16 11:45:59;;;;;;;6.00;4.47;;;29.80;75.70;;;;;;4833947;29;20339;-87
2021/08/16 11:48:29;;;;;;;6.03;4.80;;;29.70;75.80;;;;;;4836353;29;21119;-89
2021/08/16 11:50:59;;;;;;;7.38;4.90;;;29.60;76.40;;;;;;4831722;29;21040;-84
2021/08/16 11:53:38;;;;;;;6.30;4.60;;;29.60;76.30;;;;;;4830208;29;20288;-86
2021/08/16 11:56:08;;;;;;;5.68;4.47;;;29.40;76.50;;;;;;4838736;29;20582;-86
2021/08/16 11:58:37;;;;;;;5.15;4.65;;;29.30;76.20;;;;;;4829078;29;20218;-83
2021/08/16 12:01:11;;;;;;;6.05;5.13;;;29.10;76.50;;;;;;4836574;29;20205;-89
2021/08/16 12:03:41;;;;;;;5.07;4.63;;;29.00;76.50;;;;;;4832728;29;20230;-88
2021/08/16 12:06:13;;;;;;;5.63;5.03;;;28.90;76.60;;;;;;4844869;29;20212;-83
2021/08/16 12:08:43;;;;;;;5.35;4.40;;;28.90;76.90;;;;;;4841621;29;20229;-83
2021/08/16 12:11:12;;;;;;;7.50;4.85;;;28.80;77.10;;;;;;4839366;29;20217;-82
2021/08/16 12:13:42;;;;;;;5.97;5.13;;;28.80;77.20;;;;;;4843578;29;20486;-85
2021/08/16 12:16:17;;;;;;;8.00;5.15;;;28.70;77.50;;;;;;4843825;29;20198;-87
2021/08/16 12:18:56;;;;;;;6.90;4.85;;;28.70;77.50;;;;;;4837957;29;20227;-87
2021/08/16 12:21:27;;;;;;;8.50;5.57;;;28.70;77.70;;;;;;4839959;29;20201;-86
2021/08/16 12:23:57;;;;;;;8.35;5.70;;;28.80;77.60;;;;;;4847611;29;20333;-83
2021/08/16 12:26:32;;;;;;;5.82;5.32;;;28.80;77.40;;;;;;4850795;29;20756;-86
2021/08/16 12:29:01;;;;;;;6.10;5.45;;;28.80;77.40;;;;;;4853044;29;20357;-87
2021/08/16 12:31:32;;;;;;;5.65;5.15;;;28.80;77.60;;;;;;4847995;29;20200;-84
2021/08/16 12:34:02;;;;;;;5.95;5.45;;;28.90;77.50;;;;;;4852807;29;20794;-88
2021/08/16 12:36:32;;;;;;;5.90;5.45;;;28.90;77.50;;;;;;4851271;29;20197;-83
2021/08/16 12:39:08;;;;;;;6.47;5.82;;;29.10;78.00;;;;;;4853404;29;20274;-87
2021/08/16 12:41:54;;;;;;;7.38;6.13;;;29.00;77.70;;;;;;4845098;29;20364;-88
2021/08/16 12:44:25;;;;;;;9.55;6.60;;;29.20;77.60;;;;;;4853821;29;20536;-85
2021/08/16 12:47:03;;;;;;;6.22;5.63;;;29.20;77.70;;;;;;4855808;29;20505;-84
2021/08/16 12:49:34;;;;;;;6.30;5.70;;;29.40;77.50;;;;;;4852118;29;20257;-86
2021/08/16 12:52:04;;;;;;;7.40;6.10;;;29.50;78.10;;;;;;4843320;29;20213;-85
2021/08/16 12:54:35;;;;;;;6.53;5.50;;;29.50;77.50;;;;;;4849803;29;20268;-84
2021/08/16 12:57:04;;;;;;;7.55;6.43;;;29.60;77.50;;;;;;4846781;29;20212;-87
2021/08/16 12:59:33;;;;;;;8.25;6.35;;;29.60;77.20;;;;;;4841632;29;20224;-85
2021/08/16 13:02:04;;;;;;;6.50;5.90;;;29.70;77.10;;;;;;4848466;29;20240;-86